TimeCEST,TemperatureF,Dew PointF,Humidity,Sea Level PressureIn,VisibilityMPH,Wind Direction,Wind SpeedMPH,Gust SpeedMPH,PrecipitationIn,Events,Conditions,WindDirDegrees,DateUTC
12:20 AM,62.6,59.0,88,30.01,6.2,South,2.3,-,N/A,,Partly Cloudy,190,2013-09-08 22:20:00
12:50 AM,60.8,59.0,94,30.01,6.2,Variable,2.3,-,N/A,,Mostly Cloudy,0,2013-09-08 22:50:00
1:20 AM,60.8,59.0,94,30.01,6.2,WSW,4.6,-,N/A,,Overcast,240,2013-09-08 23:20:00
1:50 AM,62.6,59.0,88,30.01,6.2,Variable,1.2,-,N/A,,Overcast,0,2013-09-08 23:50:00
2:00 AM,63,59,82,29.97,28,,2.2,,,,,,2013-09-09 00:00:00
2:20 AM,62.6,59.0,88,30.01,6.2,WNW,11.5,-,N/A,,Mostly Cloudy,300,2013-09-09 00:20:00
2:50 AM,62.6,59.0,88,30.01,6.2,WNW,11.5,-,N/A,,Mostly Cloudy,290,2013-09-09 00:50:00
3:20 AM,62.6,59.0,88,30.01,6.2,WNW,13.8,-,N/A,Rain,Light Rain,300,2013-09-09 01:20:00
3:50 AM,62.6,59.0,88,30.04,6.2,NW,12.7,-,N/A,,Mostly Cloudy,320,2013-09-09 01:50:00
4:20 AM,60.8,57.2,88,30.04,6.2,NW,9.2,23.0,N/A,Rain,Light Rain,310,2013-09-09 02:20:00
4:50 AM,60.8,53.6,77,30.06,6.2,WNW,10.4,-,N/A,Rain,Light Rain,290,2013-09-09 02:50:00
5:00 AM,60,54,73,30.05,7,WNW,11.2,,,Rain,Light Rain,290,2013-09-09 03:00:00
5:20 AM,60.8,53.6,77,30.06,6.2,WNW,10.4,-,N/A,Rain,Light Rain,300,2013-09-09 03:20:00
5:50 AM,60.8,55.4,82,30.06,6.2,WNW,13.8,28.8,N/A,Rain,Light Rain,300,2013-09-09 03:50:00
6:20 AM,59.0,51.8,77,30.09,6.2,West,11.5,-,N/A,Rain,Light Rain,260,2013-09-09 04:20:00
6:50 AM,59.0,51.8,77,30.12,6.2,NW,9.2,-,N/A,Rain,Light Rain,320,2013-09-09 04:50:00
7:20 AM,57.2,53.6,88,30.12,6.2,West,4.6,-,N/A,Rain,Rain,280,2013-09-09 05:20:00
7:50 AM,57.2,53.6,88,30.12,6.2,NW,8.1,-,N/A,Rain,Light Rain,310,2013-09-09 05:50:00
8:00 AM,57,54,84,30.13,12,NW,8.9,,,Rain,Light Rain,310,2013-09-09 06:00:00
8:20 AM,59.0,53.6,82,30.12,6.2,WNW,6.9,-,N/A,,Mostly Cloudy,290,2013-09-09 06:20:00
8:50 AM,59.0,51.8,77,30.12,6.2,WNW,11.5,-,N/A,,Mostly Cloudy,290,2013-09-09 06:50:00
9:20 AM,59.0,51.8,77,30.15,6.2,WNW,10.4,-,N/A,,Mostly Cloudy,290,2013-09-09 07:20:00
9:50 AM,60.8,51.8,72,30.15,6.2,WNW,10.4,-,N/A,,Mostly Cloudy,290,2013-09-09 07:50:00
10:20 AM,60.8,50.0,68,30.15,6.2,WNW,5.8,-,N/A,,Mostly Cloudy,300,2013-09-09 08:20:00
10:50 AM,60.8,50.0,68,30.15,6.2,WNW,8.1,-,N/A,,Mostly Cloudy,290,2013-09-09 08:50:00
11:00 AM,62,50,55,30.15,19,WNW,8.9,,,,Partly Cloudy,290,2013-09-09 09:00:00
11:20 AM,62.6,51.8,68,30.15,6.2,West,8.1,-,N/A,,Mostly Cloudy,280,2013-09-09 09:20:00
11:50 AM,62.6,50.0,63,30.15,6.2,WNW,10.4,-,N/A,,Mostly Cloudy,290,2013-09-09 09:50:00
12:20 PM,62.6,50.0,63,30.15,6.2,West,8.1,-,N/A,,Mostly Cloudy,280,2013-09-09 10:20:00
12:50 PM,60.8,51.8,72,30.15,6.2,NW,15.0,-,N/A,Rain,Light Rain Showers,310,2013-09-09 10:50:00
1:20 PM,60.8,48.2,63,30.18,6.2,West,10.4,-,N/A,,Mostly Cloudy,260,2013-09-09 11:20:00
1:50 PM,60.8,48.2,63,30.18,6.2,West,9.2,-,N/A,,Mostly Cloudy,270,2013-09-09 11:50:00
2:00 PM,61,48,52,30.16,19,West,8.9,,,Rain,Light Rain Showers,270,2013-09-09 12:00:00
2:20 PM,60.8,46.4,59,30.18,6.2,WNW,8.1,-,N/A,,Mostly Cloudy,290,2013-09-09 12:20:00
2:50 PM,62.6,48.2,59,30.15,6.2,NW,13.8,-,N/A,,Mostly Cloudy,310,2013-09-09 12:50:00
3:20 PM,62.6,44.6,52,30.15,6.2,WNW,10.4,-,N/A,,Mostly Cloudy,290,2013-09-09 13:20:00
3:50 PM,64.4,42.8,45,30.15,6.2,West,6.9,-,N/A,,Mostly Cloudy,270,2013-09-09 13:50:00
4:20 PM,62.6,44.6,52,30.15,6.2,WNW,10.4,-,N/A,,Mostly Cloudy,290,2013-09-09 14:20:00
4:50 PM,62.6,42.8,48,30.15,6.2,West,6.9,-,N/A,,Mostly Cloudy,270,2013-09-09 14:50:00
5:00 PM,63,44,38,30.14,25,West,6.7,,,,Scattered Clouds,270,2013-09-09 15:00:00
5:20 PM,62.6,42.8,48,30.15,6.2,WNW,6.9,-,N/A,,Mostly Cloudy,290,2013-09-09 15:20:00
5:50 PM,62.6,46.4,55,30.15,6.2,Variable,2.3,-,N/A,,Scattered Clouds,0,2013-09-09 15:50:00
6:20 PM,62.6,50.0,63,30.15,6.2,SSE,5.8,-,N/A,,Partly Cloudy,150,2013-09-09 16:20:00
6:50 PM,60.8,51.8,72,30.12,6.2,SSE,6.9,-,N/A,,Partly Cloudy,150,2013-09-09 16:50:00
7:20 PM,59.0,50.0,72,30.12,6.2,SSE,6.9,-,N/A,,Partly Cloudy,160,2013-09-09 17:20:00
7:50 PM,57.2,50.0,77,30.15,6.2,SE,5.8,-,N/A,,Partly Cloudy,140,2013-09-09 17:50:00
8:00 PM,56,50,75,30.14,25,SE,6.7,,,,Scattered Clouds,140,2013-09-09 18:00:00
8:20 PM,55.4,50.0,82,30.15,6.2,South,5.8,-,N/A,,Partly Cloudy,190,2013-09-09 18:20:00
8:50 PM,53.6,50.0,88,30.15,6.2,South,8.1,-,N/A,,Partly Cloudy,190,2013-09-09 18:50:00
9:20 PM,51.8,48.2,88,30.15,6.2,South,5.8,-,N/A,,Partly Cloudy,170,2013-09-09 19:20:00
9:50 PM,51.8,46.4,82,30.12,-9999.0,South,5.8,-,N/A,,Clear,170,2013-09-09 19:50:00
10:20 PM,51.8,48.2,88,30.12,-9999.0,South,4.6,-,N/A,,Clear,170,2013-09-09 20:20:00
10:50 PM,50.0,46.4,87,30.12,6.2,SSE,5.8,-,N/A,,Partly Cloudy,150,2013-09-09 20:50:00
11:20 PM,50.0,46.4,87,30.12,6.2,SSE,5.8,-,N/A,,Partly Cloudy,160,2013-09-09 21:20:00
11:50 PM,48.2,46.4,93,30.12,6.2,South,5.8,-,N/A,,Unknown,170,2013-09-09 21:50:00